Time;durP1;ratioP1;P1;durP2;ratioP2;P2;SDS_P1;SDS_P2;PMS_P1;PMS_P2;Temp;Humidity;BMP_temperature;BMP_pressure;BME280_temperature;BME280_humidity;BME280_pressure;Samples;Min_cycle;Max_cycle;Signal;HPM_P1;HPM_P2
2023/03/03 00:00:55;;;;;;;;;;;;;;;;;;5053649;28;19917;-70
2023/03/03 00:03:42;;;;;;;;;;;;;;;;;;5060366;28;19926;-68
2023/03/03 00:06:29;;;;;;;;;;;;;;;;;;5019883;28;19923;-69
2023/03/03 00:09:15;;;;;;;;;;;;;;;;;;5046266;28;19920;-68
2023/03/03 00:12:02;;;;;;;;;;;;;;;;;;5056976;28;19916;-69
2023/03/03 00:14:48;;;;;;;;;;;;;;;;;;5049132;28;19925;-68
2023/03/03 00:17:35;;;;;;;;;;;;;;;;;;5040187;28;19929;-68
2023/03/03 00:20:21;;;;;;;;;;;;;;;;;;5035674;28;19917;-68
2023/03/03 00:23:08;;;;;;;;;;;;;;;;;;5038649;28;19941;-68
2023/03/03 00:25:54;;;;;;;;;;;;;;;;;;5035569;28;19913;-68
2023/03/03 00:28:41;;;;;;;;;;;;;;;;;;5059820;28;19925;-68
2023/03/03 00:31:27;;;;;;;;;;;;;;;;;;5046979;28;19928;-68
2023/03/03 00:34:14;;;;;;;;;;;;;;;;;;5042809;28;20368;-68
2023/03/03 00:37:00;;;;;;;;;;;;;;;;;;5031766;28;19924;-69
2023/03/03 00:39:47;;;;;;;;;;;;;;;;;;5033159;28;19965;-68
2023/03/03 00:42:34;;;;;;;;;;;;;;;;;;5044810;28;19924;-68
2023/03/03 00:45:20;;;;;;;;;;;;;;;;;;5044807;28;19928;-68
2023/03/03 00:48:07;;;;;;;;;;;;;;;;;;5038168;28;19928;-68
2023/03/03 00:50:53;;;;;;;;;;;;;;;;;;5059181;28;20197;-68
2023/03/03 00:53:40;;;;;;;;;;;;;;;;;;5058087;28;20672;-68
2023/03/03 00:56:26;;;;;;;;;;;;;;;;;;5041317;28;19928;-68
2023/03/03 00:59:13;;;;;;;;;;;;;;;;;;5061065;28;19924;-69
2023/03/03 01:01:59;;;;;;;;;;;;;;;;;;5051532;28;19917;-68
2023/03/03 01:04:46;;;;;;;;;;;;;;;;;;5043600;28;19920;-68
2023/03/03 01:07:32;;;;;;;;;;;;;;;;;;5054174;28;19955;-68
2023/03/03 01:10:19;;;;;;;;;;;;;;;;;;5035949;28;20352;-69
2023/03/03 01:13:06;;;;;;;;;;;;;;;;;;5037286;28;19929;-68
2023/03/03 01:15:52;;;;;;;;;;;;;;;;;;5047909;28;20312;-69
2023/03/03 01:18:40;;;;;;;;;;;;;;;;;;5061398;28;19932;-68
2023/03/03 01:21:27;;;;;;;;;;;;;;;;;;5059825;28;20287;-68
2023/03/03 01:24:13;;;;;;;;;;;;;;;;;;5057754;28;19912;-68
2023/03/03 01:27:00;;;;;;;;;;;;;;;;;;5056967;28;19923;-68
2023/03/03 01:29:46;;;;;;;;;;;;;;;;;;5047423;28;19917;-68
2023/03/03 01:32:32;;;;;;;;;;;;;;;;;;5039217;28;19913;-68
2023/03/03 01:35:19;;;;;;;;;;;;;;;;;;5039064;28;20367;-68
2023/03/03 01:38:05;;;;;;;;;;;;;;;;;;5056638;28;20016;-68
2023/03/03 01:40:52;;;;;;;;;;;;;;;;;;5060888;28;20744;-68
2023/03/03 01:43:39;;;;;;;;;;;;;;;;;;5040765;28;19917;-68
2023/03/03 01:46:25;;;;;;;;;;;;;;;;;;5052580;28;19920;-68
2023/03/03 01:49:12;;;;;;;;;;;;;;;;;;5061753;28;20399;-68
2023/03/03 01:51:58;;;;;;;;;;;;;;;;;;5049497;28;19921;-69
2023/03/03 01:54:45;;;;;;;;;;;;;;;;;;5071217;28;20364;-68
2023/03/03 01:57:31;;;;;;;;;;;;;;;;;;5066521;28;19916;-68
2023/03/03 02:00:18;;;;;;;;;;;;;;;;;;5050607;28;19921;-67
2023/03/03 02:03:04;;;;;;;;;;;;;;;;;;5047861;28;19920;-67
2023/03/03 02:05:51;;;;;;;;;;;;;;;;;;5062061;28;19923;-68
2023/03/03 02:08:37;;;;;;;;;;;;;;;;;;5059803;28;19927;-68
2023/03/03 02:11:24;;;;;;;;;;;;;;;;;;5062656;28;20297;-68
2023/03/03 02:14:10;;;;;;;;;;;;;;;;;;5041692;28;20375;-68
2023/03/03 02:16:57;;;;;;;;;;;;;;;;;;5039979;28;19926;-69
2023/03/03 02:19:43;;;;;;;;;;;;;;;;;;5065595;28;20388;-69
2023/03/03 02:22:30;;;;;;;;;;;;;;;;;;5045025;28;19916;-69
2023/03/03 02:25:16;;;;;;;;;;;;;;;;;;5056150;28;19927;-69
2023/03/03 02:28:03;;;;;;;;;;;;;;;;;;5057773;28;19923;-69
2023/03/03 02:30:49;;;;;;;;;;;;;;;;;;5048581;28;19921;-69
2023/03/03 02:33:36;;;;;;;;;;;;;;;;;;5050108;28;19920;-69
2023/03/03 02:36:22;;;;;;;;;;;;;;;;;;5048336;28;19939;-68
2023/03/03 02:39:09;;;;;;;;;;;;;;;;;;5054914;28;19928;-68
2023/03/03 02:41:55;;;;;;;;;;;;;;;;;;5063668;28;20445;-68
2023/03/03 02:44:42;;;;;;;;;;;;;;;;;;5058411;28;19921;-68
2023/03/03 02:47:28;;;;;;;;;;;;;;;;;;5053118;28;20379;-68
2023/03/03 02:50:15;;;;;;;;;;;;;;;;;;5058173;28;19927;-68
2023/03/03 02:53:01;;;;;;;;;;;;;;;;;;5059274;28;20354;-68
2023/03/03 02:55:48;;;;;;;;;;;;;;;;;;5060214;28;19920;-68
2023/03/03 02:58:34;;;;;;;;;;;;;;;;;;5043490;28;20036;-68
2023/03/03 03:01:21;;;;;;;;;;;;;;;;;;5044766;28;19917;-68
2023/03/03 03:04:07;;;;;;;;;;;;;;;;;;5043361;28;19921;-68
2023/03/03 03:06:53;;;;;;;;;;;;;;;;;;5032931;28;19932;-69
2023/03/03 03:09:40;;;;;;;;;;;;;;;;;;5028682;28;19921;-68
2023/03/03 03:12:26;;;;;;;;;;;;;;;;;;5043662;28;19935;-69
2023/03/03 03:15:14;;;;;;;;;;;;;;;;;;5057192;28;20312;-68
2023/03/03 03:18:01;;;;;;;;;;;;;;;;;;5064042;28;19951;-68
2023/03/03 03:20:47;;;;;;;;;;;;;;;;;;5049628;28;19928;-68
2023/03/03 03:23:34;;;;;;;;;;;;;;;;;;5056596;28;19921;-68
2023/03/03 03:26:20;;;;;;;;;;;;;;;;;;5058415;28;19939;-68
2023/03/03 03:29:07;;;;;;;;;;;;;;;;;;5061180;28;19920;-68
2023/03/03 03:31:54;;;;;;;;;;;;;;;;;;5048549;28;19927;-69
2023/03/03 03:34:40;;;;;;;;;;;;;;;;;;5049398;28;19920;-68
2023/03/03 03:37:27;;;;;;;;;;;;;;;;;;5050787;28;19916;-68
2023/03/03 03:40:13;;;;;;;;;;;;;;;;;;5060251;28;19935;-68
2023/03/03 03:43:00;;;;;;;;;;;;;;;;;;5052247;28;19927;-68
2023/03/03 03:45:46;;;;;;;;;;;;;;;;;;5057895;28;19913;-68
2023/03/03 03:48:33;;;;;;;;;;;;;;;;;;5064208;28;20100;-68
2023/03/03 03:51:19;;;;;;;;;;;;;;;;;;5047612;28;20038;-67
2023/03/03 03:54:06;;;;;;;;;;;;;;;;;;5057211;28;19923;-68
2023/03/03 03:56:53;;;;;;;;;;;;;;;;;;5058877;28;19921;-68
2023/03/03 03:59:40;;;;;;;;;;;;;;;;;;5052675;28;19932;-68
2023/03/03 04:02:26;;;;;;;;;;;;;;;;;;5047509;28;20373;-68
2023/03/03 04:05:12;;;;;;;;;;;;;;;;;;5048075;28;19936;-68
2023/03/03 04:07:59;;;;;;;;;;;;;;;;;;5056402;28;20403;-69
2023/03/03 04:10:45;;;;;;;;;;;;;;;;;;5057093;28;19920;-69
2023/03/03 04:13:33;;;;;;;;;;;;;;;;;;5050500;28;19928;-69
2023/03/03 04:16:20;;;;;;;;;;;;;;;;;;5045246;28;20428;-69
2023/03/03 04:19:08;;;;;;;;;;;;;;;;;;5070125;28;20135;-68
2023/03/03 04:21:55;;;;;;;;;;;;;;;;;;5054945;28;19917;-69
2023/03/03 04:24:41;;;;;;;;;;;;;;;;;;5064002;28;19920;-68
2023/03/03 04:27:28;;;;;;;;;;;;;;;;;;5046286;28;19920;-68
2023/03/03 04:30:14;;;;;;;;;;;;;;;;;;5045695;28;19928;-68
2023/03/03 04:33:01;;;;;;;;;;;;;;;;;;5039111;28;20412;-68
2023/03/03 04:35:47;;;;;;;;;;;;;;;;;;5057465;28;19962;-68
2023/03/03 04:38:34;;;;;;;;;;;;;;;;;;5038473;28;19925;-68
2023/03/03 04:41:20;;;;;;;;;;;;;;;;;;5029126;28;20357;-69
2023/03/03 04:44:07;;;;;;;;;;;;;;;;;;5049196;28;19926;-68
2023/03/03 04:46:53;;;;;;;;;;;;;;;;;;5027868;28;20284;-69
2023/03/03 04:49:40;;;;;;;;;;;;;;;;;;5050212;28;19913;-68
2023/03/03 04:52:26;;;;;;;;;;;;;;;;;;5056905;28;19917;-69
2023/03/03 04:55:13;;;;;;;;;;;;;;;;;;5047537;28;20376;-68
2023/03/03 04:57:59;;;;;;;;;;;;;;;;;;5052544;28;20533;-69
2023/03/03 05:00:46;;;;;;;;;;;;;;;;;;5059996;28;20422;-68
2023/03/03 05:03:33;;;;;;;;;;;;;;;;;;5048330;28;19928;-69
2023/03/03 05:06:19;;;;;;;;;;;;;;;;;;5043637;28;20403;-69
2023/03/03 05:09:06;;;;;;;;;;;;;;;;;;5030489;28;19949;-68
2023/03/03 05:11:53;;;;;;;;;;;;;;;;;;5051755;28;19921;-69
2023/03/03 05:14:39;;;;;;;;;;;;;;;;;;5055780;28;19928;-69
2023/03/03 05:17:25;;;;;;;;;;;;;;;;;;5037772;28;20312;-69
2023/03/03 05:20:12;;;;;;;;;;;;;;;;;;5062058;28;19928;-68
2023/03/03 05:23:00;;;;;;;;;;;;;;;;;;5056901;28;19917;-68
2023/03/03 05:25:46;;;;;;;;;;;;;;;;;;5068176;28;19916;-68
2023/03/03 05:28:33;;;;;;;;;;;;;;;;;;5046554;28;19916;-69
2023/03/03 05:31:19;;;;;;;;;;;;;;;;;;5045210;28;19921;-68
2023/03/03 05:34:06;;;;;;;;;;;;;;;;;;5040267;28;19921;-69
2023/03/03 05:36:52;;;;;;;;;;;;;;;;;;5065879;28;19924;-67
2023/03/03 05:39:39;;;;;;;;;;;;;;;;;;5058437;28;19929;-67
2023/03/03 05:42:25;;;;;;;;;;;;;;;;;;5055177;28;19921;-68
2023/03/03 05:45:12;;;;;;;;;;;;;;;;;;5048109;28;20449;-67
2023/03/03 05:47:58;;;;;;;;;;;;;;;;;;5044940;28;19921;-68
2023/03/03 05:50:45;;;;;;;;;;;;;;;;;;5037380;28;20301;-68
2023/03/03 05:53:31;;;;;;;;;;;;;;;;;;5039396;28;19916;-67
2023/03/03 05:56:18;;;;;;;;;;;;;;;;;;5039643;28;19928;-67
2023/03/03 05:59:04;;;;;;;;;;;;;;;;;;5039221;28;19974;-67
2023/03/03 06:01:51;;;;;;;;;;;;;;;;;;5039536;28;19924;-68
2023/03/03 06:04:37;;;;;;;;;;;;;;;;;;5039496;28;19917;-68
2023/03/03 06:07:24;;;;;;;;;;;;;;;;;;5042444;28;19921;-68
2023/03/03 06:10:10;;;;;;;;;;;;;;;;;;5036991;28;20372;-68
2023/03/03 06:12:57;;;;;;;;;;;;;;;;;;5058073;28;19925;-68
2023/03/03 06:15:44;;;;;;;;;;;;;;;;;;5061921;28;19920;-68
2023/03/03 06:18:30;;;;;;;;;;;;;;;;;;5053008;28;19932;-68
2023/03/03 06:21:17;;;;;;;;;;;;;;;;;;5054756;28;19921;-68
2023/03/03 06:24:03;;;;;;;;;;;;;;;;;;5046498;28;19921;-68
2023/03/03 06:26:50;;;;;;;;;;;;;;;;;;5041475;28;20379;-70
2023/03/03 06:29:37;;;;;;;;;;;;;;;;;;5045693;28;20556;-68
2023/03/03 06:32:23;;;;;;;;;;;;;;;;;;5073165;28;19920;-67
2023/03/03 06:35:10;;;;;;;;;;;;;;;;;;5053674;28;19928;-68
2023/03/03 06:37:56;;;;;;;;;;;;;;;;;;5061798;28;19923;-68
2023/03/03 06:40:42;;;;;;;;;;;;;;;;;;5066010;28;19955;-68
2023/03/03 06:43:29;;;;;;;;;;;;;;;;;;5028842;28;19917;-69
2023/03/03 06:46:16;;;;;;;;;;;;;;;;;;5036921;28;19916;-68
2023/03/03 06:49:03;;;;;;;;;;;;;;;;;;5027537;28;19932;-68
2023/03/03 06:51:49;;;;;;;;;;;;;;;;;;5033930;28;19919;-68
2023/03/03 06:54:36;;;;;;;;;;;;;;;;;;5049923;28;19927;-68
2023/03/03 06:57:22;;;;;;;;;;;;;;;;;;5045803;28;19919;-67
2023/03/03 07:00:09;;;;;;;;;;;;;;;;;;5041733;28;19931;-67
2023/03/03 07:02:55;;;;;;;;;;;;;;;;;;5065932;28;19923;-69
2023/03/03 07:05:42;;;;;;;;;;;;;;;;;;5085782;28;20390;-68
2023/03/03 07:08:28;;;;;;;;;;;;;;;;;;5053604;28;19912;-68
2023/03/03 07:11:15;;;;;;;;;;;;;;;;;;5029943;28;19920;-68
2023/03/03 07:14:01;;;;;;;;;;;;;;;;;;5054875;28;19959;-68
2023/03/03 07:16:48;;;;;;;;;;;;;;;;;;5051195;28;20399;-69
2023/03/03 07:19:34;;;;;;;;;;;;;;;;;;5053021;28;19973;-68
2023/03/03 07:22:21;;;;;;;;;;;;;;;;;;5059600;28;19913;-68
2023/03/03 07:25:07;;;;;;;;;;;;;;;;;;5042369;28;19921;-69
2023/03/03 07:27:53;;;;;;;;;;;;;;;;;;5051964;28;19925;-68
2023/03/03 07:30:40;;;;;;;;;;;;;;;;;;5053824;28;19916;-69
2023/03/03 07:33:26;;;;;;;;;;;;;;;;;;5054745;28;19913;-68
2023/03/03 07:36:13;;;;;;;;;;;;;;;;;;5050161;28;19927;-71
2023/03/03 07:39:00;;;;;;;;;;;;;;;;;;5051043;28;19925;-71
2023/03/03 07:41:46;;;;;;;;;;;;;;;;;;5050364;28;20645;-71
2023/03/03 07:44:33;;;;;;;;;;;;;;;;;;5047139;28;19959;-71
2023/03/03 07:47:19;;;;;;;;;;;;;;;;;;5056488;28;19928;-71
2023/03/03 07:50:06;;;;;;;;;;;;;;;;;;5050981;28;19928;-71
2023/03/03 07:52:55;;;;;;;;;;;;;;;;;;5050462;28;20270;-72
2023/03/03 07:55:41;;;;;;;;;;;;;;;;;;5058542;28;19916;-70
2023/03/03 07:58:28;;;;;;;;;;;;;;;;;;5050750;28;19936;-70
2023/03/03 08:01:15;;;;;;;;;;;;;;;;;;5047167;28;20313;-71
2023/03/03 08:04:06;;;;;;;;;;;;;;;;;;5050763;28;19916;-73
2023/03/03 08:06:52;;;;;;;;;;;;;;;;;;5060356;28;19919;-78
2023/03/03 08:09:39;;;;;;;;;;;;;;;;;;5060472;28;20281;-72
2023/03/03 08:12:25;;;;;;;;;;;;;;;;;;5052866;28;19928;-72
2023/03/03 08:15:12;;;;;;;;;;;;;;;;;;5066605;28;19936;-72
2023/03/03 08:17:58;;;;;;;;;;;;;;;;;;5055995;28;19939;-72
2023/03/03 08:20:45;;;;;;;;;;;;;;;;;;5069676;28;19920;-70
2023/03/03 08:23:31;;;;;;;;;;;;;;;;;;5062695;28;19921;-71
2023/03/03 08:26:18;;;;;;;;;;;;;;;;;;5060970;28;19916;-71
2023/03/03 08:29:04;;;;;;;;;;;;;;;;;;5052514;28;20398;-72
2023/03/03 08:31:51;;;;;;;;;;;;;;;;;;5058686;28;19921;-73
2023/03/03 08:34:37;;;;;;;;;;;;;;;;;;5034756;28;19921;-73
2023/03/03 08:37:24;;;;;;;;;;;;;;;;;;5045096;28;19916;-75
2023/03/03 08:40:10;;;;;;;;;;;;;;;;;;5064720;28;19935;-72
2023/03/03 08:42:57;;;;;;;;;;;;;;;;;;5057986;28;19916;-71
2023/03/03 08:45:43;;;;;;;;;;;;;;;;;;5064106;28;19921;-71
2023/03/03 08:48:30;;;;;;;;;;;;;;;;;;5067201;28;19938;-71
2023/03/03 08:51:16;;;;;;;;;;;;;;;;;;5063233;28;19912;-71
2023/03/03 08:54:03;;;;;;;;;;;;;;;;;;5062434;28;19916;-72
2023/03/03 08:56:49;;;;;;;;;;;;;;;;;;5066384;28;19916;-71
2023/03/03 08:59:37;;;;;;;;;;;;;;;;;;5051587;28;19925;-71
2023/03/03 09:02:24;;;;;;;;;;;;;;;;;;5040101;28;19923;-71
2023/03/03 09:05:10;;;;;;;;;;;;;;;;;;5046382;28;19940;-71
2023/03/03 09:07:58;;;;;;;;;;;;;;;;;;5037012;28;19916;-71
2023/03/03 09:10:44;;;;;;;;;;;;;;;;;;5043565;28;19924;-72
2023/03/03 09:13:31;;;;;;;;;;;;;;;;;;5042211;28;19929;-72
2023/03/03 09:16:17;;;;;;;;;;;;;;;;;;5015076;28;20019;-73
2023/03/03 09:19:04;;;;;;;;;;;;;;;;;;5050380;28;19925;-72
2023/03/03 09:21:50;;;;;;;;;;;;;;;;;;5033828;28;19917;-72
2023/03/03 09:24:37;;;;;;;;;;;;;;;;;;5039232;28;19927;-72
2023/03/03 09:27:23;;;;;;;;;;;;;;;;;;5042749;28;20394;-71
2023/03/03 09:30:10;;;;;;;;;;;;;;;;;;5040768;28;19928;-71
2023/03/03 09:32:56;;;;;;;;;;;;;;;;;;5038947;28;19924;-72
2023/03/03 09:35:44;;;;;;;;;;;;;;;;;;5038981;28;20520;-71
2023/03/03 09:38:30;;;;;;;;;;;;;;;;;;5047273;28;20400;-71
2023/03/03 09:41:17;;;;;;;;;;;;;;;;;;5049733;28;19936;-71
2023/03/03 09:44:03;;;;;;;;;;;;;;;;;;5044604;28;19921;-71
2023/03/03 09:46:50;;;;;;;;;;;;;;;;;;5041308;28;19921;-70
2023/03/03 09:49:36;;;;;;;;;;;;;;;;;;5032294;28;19921;-73
2023/03/03 09:52:23;;;;;;;;;;;;;;;;;;5033054;28;19917;-73
2023/03/03 09:55:09;;;;;;;;;;;;;;;;;;5042446;28;20273;-74
2023/03/03 09:57:56;;;;;;;;;;;;;;;;;;5054346;28;19921;-74
2023/03/03 10:00:42;;;;;;;;;;;;;;;;;;5031245;28;20285;-74
2023/03/03 10:03:29;;;;;;;;;;;;;;;;;;5044590;28;19920;-74
2023/03/03 10:06:15;;;;;;;;;;;;;;;;;;5042178;28;19917;-74
2023/03/03 10:09:01;;;;;;;;;;;;;;;;;;5043772;28;19925;-75
2023/03/03 10:11:48;;;;;;;;;;;;;;;;;;5038777;28;19923;-74
2023/03/03 10:14:34;;;;;;;;;;;;;;;;;;5050248;28;19928;-74
2023/03/03 10:17:21;;;;;;;;;;;;;;;;;;5052346;28;19917;-75
2023/03/03 10:20:07;;;;;;;;;;;;;;;;;;5057900;28;19940;-74
2023/03/03 10:22:54;;;;;;;;;;;;;;;;;;5062470;28;19920;-75
2023/03/03 10:25:41;;;;;;;;;;;;;;;;;;5055529;28;19927;-73
2023/03/03 10:28:29;;;;;;;;;;;;;;;;;;5069860;28;19916;-74
2023/03/03 10:31:18;;;;;;;;;;;;;;;;;;5062280;28;20368;-73
2023/03/03 10:34:04;;;;;;;;;;;;;;;;;;5058800;28;20398;-75
2023/03/03 10:36:51;;;;;;;;;;;;;;;;;;5053429;28;19917;-74
2023/03/03 10:39:38;;;;;;;;;;;;;;;;;;5052840;28;19924;-74
2023/03/03 10:42:25;;;;;;;;;;;;;;;;;;5056851;28;19923;-74
2023/03/03 10:45:11;;;;;;;;;;;;;;;;;;5054775;28;19927;-73
2023/03/03 10:47:57;;;;;;;;;;;;;;;;;;5060588;28;19917;-74
2023/03/03 10:50:44;;;;;;;;;;;;;;;;;;5058956;28;19920;-74
2023/03/03 10:53:30;;;;;;;;;;;;;;;;;;5061524;28;19917;-74
2023/03/03 10:56:17;;;;;;;;;;;;;;;;;;5068326;28;20664;-74
2023/03/03 10:59:03;;;;;;;;;;;;;;;;;;5057467;28;19924;-73
2023/03/03 11:01:50;;;;;;;;;;;;;;;;;;5057956;28;19931;-75
2023/03/03 11:04:36;;;;;;;;;;;;;;;;;;5058576;28;19916;-72
2023/03/03 11:07:23;;;;;;;;;;;;;;;;;;5045503;28;20410;-73
2023/03/03 11:10:09;;;;;;;;;;;;;;;;;;5055401;28;19927;-72
2023/03/03 11:12:58;;;;;;;;;;;;;;;;;;5049426;28;20369;-71
2023/03/03 11:15:44;;;;;;;;;;;;;;;;;;5055878;28;19940;-72
2023/03/03 11:18:31;;;;;;;;;;;;;;;;;;5054245;28;19916;-73
2023/03/03 11:21:17;;;;;;;;;;;;;;;;;;5054675;28;19933;-72
2023/03/03 11:24:04;;;;;;;;;;;;;;;;;;5057344;28;19932;-71
2023/03/03 11:26:50;;;;;;;;;;;;;;;;;;5056600;28;19917;-73
2023/03/03 11:29:37;;;;;;;;;;;;;;;;;;5056946;28;19921;-71
2023/03/03 11:32:24;;;;;;;;;;;;;;;;;;5056271;28;20347;-72
2023/03/03 11:35:10;;;;;;;;;;;;;;;;;;5060190;28;19917;-72
2023/03/03 11:37:57;;;;;;;;;;;;;;;;;;5056251;28;20014;-71
2023/03/03 11:40:43;;;;;;;;;;;;;;;;;;5067366;28;19935;-72
2023/03/03 11:43:31;;;;;;;;;;;;;;;;;;5059576;28;19913;-72
2023/03/03 11:46:18;;;;;;;;;;;;;;;;;;5047668;28;19931;-70
2023/03/03 11:49:05;;;;;;;;;;;;;;;;;;5051494;28;19920;-70
2023/03/03 11:51:51;;;;;;;;;;;;;;;;;;5062363;28;19928;-70
2023/03/03 11:54:38;;;;;;;;;;;;;;;;;;5052925;28;19940;-69
2023/03/03 11:57:24;;;;;;;;;;;;;;;;;;5059854;28;19923;-70
2023/03/03 12:00:10;;;;;;;;;;;;;;;;;;5064248;28;19935;-69
2023/03/03 12:02:57;;;;;;;;;;;;;;;;;;5054081;28;19920;-69
2023/03/03 12:05:43;;;;;;;;;;;;;;;;;;5063113;28;19920;-69
2023/03/03 12:08:30;;;;;;;;;;;;;;;;;;5053805;28;19917;-70
2023/03/03 12:11:16;;;;;;;;;;;;;;;;;;5057294;28;19921;-69
2023/03/03 12:14:03;;;;;;;;;;;;;;;;;;5043122;28;19954;-68
2023/03/03 12:16:49;;;;;;;;;;;;;;;;;;5054816;28;19924;-69
2023/03/03 12:19:36;;;;;;;;;;;;;;;;;;5056130;28;19951;-69
2023/03/03 12:22:22;;;;;;;;;;;;;;;;;;5062773;28;19916;-70
2023/03/03 12:25:09;;;;;;;;;;;;;;;;;;5051532;28;19921;-71
2023/03/03 12:27:55;;;;;;;;;;;;;;;;;;5058788;28;19920;-70
2023/03/03 12:30:42;;;;;;;;;;;;;;;;;;5063159;28;19952;-70
2023/03/03 12:33:28;;;;;;;;;;;;;;;;;;5059741;28;19920;-69
2023/03/03 12:36:15;;;;;;;;;;;;;;;;;;5055021;28;19916;-71
2023/03/03 12:39:01;;;;;;;;;;;;;;;;;;5052521;28;20009;-71
2023/03/03 12:41:50;;;;;;;;;;;;;;;;;;5039035;28;19925;-71
2023/03/03 12:44:36;;;;;;;;;;;;;;;;;;5050117;28;19921;-71
2023/03/03 12:47:23;;;;;;;;;;;;;;;;;;5055688;28;19923;-76
2023/03/03 12:50:09;;;;;;;;;;;;;;;;;;5043927;28;20299;-73
2023/03/03 12:52:56;;;;;;;;;;;;;;;;;;5047516;28;19923;-78
2023/03/03 12:55:42;;;;;;;;;;;;;;;;;;5060154;28;19940;-74
2023/03/03 12:58:29;;;;;;;;;;;;;;;;;;5051076;28;19921;-74
2023/03/03 13:01:15;;;;;;;;;;;;;;;;;;5056127;28;19925;-73
2023/03/03 13:04:03;;;;;;;;;;;;;;;;;;5057816;28;19917;-75
2023/03/03 13:06:50;;;;;;;;;;;;;;;;;;5056471;28;19967;-75
2023/03/03 13:09:36;;;;;;;;;;;;;;;;;;5042819;28;19913;-76
2023/03/03 13:12:23;;;;;;;;;;;;;;;;;;5050298;28;19921;-75
2023/03/03 13:15:09;;;;;;;;;;;;;;;;;;5040923;28;20296;-75
2023/03/03 13:17:56;;;;;;;;;;;;;;;;;;5059870;28;19920;-75
2023/03/03 13:20:42;;;;;;;;;;;;;;;;;;5055937;28;19951;-77
2023/03/03 13:23:30;;;;;;;;;;;;;;;;;;5065093;28;19916;-77
2023/03/03 13:26:17;;;;;;;;;;;;;;;;;;5058706;28;19924;-77
2023/03/03 13:29:03;;;;;;;;;;;;;;;;;;5055180;28;19917;-76
2023/03/03 13:31:50;;;;;;;;;;;;;;;;;;5056297;28;20017;-77
2023/03/03 13:34:36;;;;;;;;;;;;;;;;;;5052305;28;19912;-76
2023/03/03 13:37:23;;;;;;;;;;;;;;;;;;5061040;28;19927;-74
2023/03/03 13:40:09;;;;;;;;;;;;;;;;;;5024648;28;19929;-75
2023/03/03 13:42:56;;;;;;;;;;;;;;;;;;5038201;28;19929;-75
2023/03/03 13:45:43;;;;;;;;;;;;;;;;;;5033064;28;19928;-76
2023/03/03 13:48:29;;;;;;;;;;;;;;;;;;5055129;28;20914;-75
2023/03/03 13:51:16;;;;;;;;;;;;;;;;;;5059378;28;19929;-76
2023/03/03 13:54:02;;;;;;;;;;;;;;;;;;5070736;28;19923;-76
2023/03/03 13:56:49;;;;;;;;;;;;;;;;;;5074873;28;19912;-76
2023/03/03 13:59:35;;;;;;;;;;;;;;;;;;5071851;28;19925;-76
2023/03/03 14:02:24;;;;;;;;;;;;;;;;;;5054916;28;19913;-76
2023/03/03 14:05:11;;;;;;;;;;;;;;;;;;5054727;28;19921;-76
2023/03/03 14:07:57;;;;;;;;;;;;;;;;;;5043170;28;19941;-76
2023/03/03 14:10:44;;;;;;;;;;;;;;;;;;5039337;28;20396;-76
2023/03/03 14:13:30;;;;;;;;;;;;;;;;;;5048053;28;19925;-76
2023/03/03 14:16:17;;;;;;;;;;;;;;;;;;5055274;28;20364;-75
2023/03/03 14:19:03;;;;;;;;;;;;;;;;;;5051260;28;19955;-74
2023/03/03 14:21:50;;;;;;;;;;;;;;;;;;5046968;28;19921;-75
2023/03/03 14:24:37;;;;;;;;;;;;;;;;;;5040448;28;19928;-76
2023/03/03 14:27:23;;;;;;;;;;;;;;;;;;5055198;28;19913;-75
2023/03/03 14:30:10;;;;;;;;;;;;;;;;;;5052064;28;19913;-75
2023/03/03 14:32:56;;;;;;;;;;;;;;;;;;5053661;28;19923;-75
2023/03/03 14:35:43;;;;;;;;;;;;;;;;;;5057013;28;20795;-76
2023/03/03 14:38:29;;;;;;;;;;;;;;;;;;5055704;28;19924;-75
2023/03/03 14:41:16;;;;;;;;;;;;;;;;;;5061158;28;20372;-76
2023/03/03 14:44:02;;;;;;;;;;;;;;;;;;5051497;28;19916;-76
2023/03/03 14:46:49;;;;;;;;;;;;;;;;;;5058527;28;19917;-76
2023/03/03 14:49:36;;;;;;;;;;;;;;;;;;5051093;28;19920;-76
2023/03/03 14:52:23;;;;;;;;;;;;;;;;;;5053715;28;19921;-76
2023/03/03 14:55:09;;;;;;;;;;;;;;;;;;5065419;28;19923;-76
2023/03/03 14:57:56;;;;;;;;;;;;;;;;;;5054133;28;19920;-75
2023/03/03 15:00:43;;;;;;;;;;;;;;;;;;5055528;28;19924;-76
2023/03/03 15:03:29;;;;;;;;;;;;;;;;;;5056604;28;19917;-75
2023/03/03 15:06:16;;;;;;;;;;;;;;;;;;5055560;28;19924;-71
2023/03/03 15:09:02;;;;;;;;;;;;;;;;;;5054478;28;19916;-71
2023/03/03 15:11:49;;;;;;;;;;;;;;;;;;5056964;28;19920;-72
2023/03/03 15:14:35;;;;;;;;;;;;;;;;;;5047020;28;20399;-71
2023/03/03 15:17:22;;;;;;;;;;;;;;;;;;5033825;28;19921;-71
2023/03/03 15:20:08;;;;;;;;;;;;;;;;;;5046011;28;19930;-72
2023/03/03 15:22:55;;;;;;;;;;;;;;;;;;5032681;28;19935;-72
2023/03/03 15:25:42;;;;;;;;;;;;;;;;;;5036058;28;19913;-71
2023/03/03 15:28:28;;;;;;;;;;;;;;;;;;5034760;28;19921;-72
2023/03/03 15:31:15;;;;;;;;;;;;;;;;;;5032631;28;20585;-72
2023/03/03 15:34:02;;;;;;;;;;;;;;;;;;5033000;28;19917;-70
2023/03/03 15:36:48;;;;;;;;;;;;;;;;;;5034299;28;20206;-71
2023/03/03 15:39:35;;;;;;;;;;;;;;;;;;5031074;28;20478;-71
2023/03/03 15:42:21;;;;;;;;;;;;;;;;;;5035192;28;19929;-72
2023/03/03 15:45:08;;;;;;;;;;;;;;;;;;5045403;28;19924;-71
2023/03/03 15:47:54;;;;;;;;;;;;;;;;;;5034307;28;19928;-72
2023/03/03 15:50:41;;;;;;;;;;;;;;;;;;5050671;28;19927;-71
2023/03/03 15:53:27;;;;;;;;;;;;;;;;;;5042588;28;19917;-72
2023/03/03 15:56:15;;;;;;;;;;;;;;;;;;5045181;28;19921;-72
2023/03/03 15:59:01;;;;;;;;;;;;;;;;;;5032272;28;19928;-72
2023/03/03 16:01:48;;;;;;;;;;;;;;;;;;5034397;28;19925;-71
2023/03/03 16:04:34;;;;;;;;;;;;;;;;;;5034139;28;20438;-72
2023/03/03 16:07:21;;;;;;;;;;;;;;;;;;5026761;28;20369;-72
2023/03/03 16:10:10;;;;;;;;;;;;;;;;;;5032956;28;19927;-71
2023/03/03 16:12:57;;;;;;;;;;;;;;;;;;5037097;28;19917;-72
2023/03/03 16:15:44;;;;;;;;;;;;;;;;;;5060443;28;19929;-72
2023/03/03 16:18:30;;;;;;;;;;;;;;;;;;5061511;28;19923;-72
2023/03/03 16:21:17;;;;;;;;;;;;;;;;;;5046841;28;19936;-72
2023/03/03 16:24:03;;;;;;;;;;;;;;;;;;5051719;28;19916;-71
2023/03/03 16:26:49;;;;;;;;;;;;;;;;;;5057870;28;20390;-72
2023/03/03 16:29:36;;;;;;;;;;;;;;;;;;5052795;28;19923;-72
2023/03/03 16:32:22;;;;;;;;;;;;;;;;;;5058967;28;19927;-71
2023/03/03 16:35:09;;;;;;;;;;;;;;;;;;5045581;28;19920;-72
2023/03/03 16:37:56;;;;;;;;;;;;;;;;;;5056059;28;19925;-72
2023/03/03 16:40:42;;;;;;;;;;;;;;;;;;5049289;28;19935;-73
2023/03/03 16:43:29;;;;;;;;;;;;;;;;;;5052718;28;19926;-72
2023/03/03 16:46:15;;;;;;;;;;;;;;;;;;5057775;28;19928;-74
2023/03/03 16:49:02;;;;;;;;;;;;;;;;;;5065534;28;19927;-72
2023/03/03 16:51:49;;;;;;;;;;;;;;;;;;5063863;28;19921;-71
2023/03/03 16:54:35;;;;;;;;;;;;;;;;;;5055024;28;19925;-72
2023/03/03 16:57:22;;;;;;;;;;;;;;;;;;5053147;28;20377;-71
2023/03/03 17:00:09;;;;;;;;;;;;;;;;;;5061281;28;20387;-72
2023/03/03 17:02:55;;;;;;;;;;;;;;;;;;5064854;28;19917;-72
2023/03/03 17:05:42;;;;;;;;;;;;;;;;;;5071947;28;19923;-72
2023/03/03 17:08:28;;;;;;;;;;;;;;;;;;5060588;28;19917;-71
2023/03/03 17:11:15;;;;;;;;;;;;;;;;;;5071697;28;19954;-72
2023/03/03 17:14:01;;;;;;;;;;;;;;;;;;5059432;28;20288;-72
2023/03/03 17:16:48;;;;;;;;;;;;;;;;;;5059716;28;20292;-72
2023/03/03 17:19:35;;;;;;;;;;;;;;;;;;5068619;28;20293;-72
2023/03/03 17:22:23;;;;;;;;;;;;;;;;;;5077078;28;20423;-72
2023/03/03 17:25:09;;;;;;;;;;;;;;;;;;5080342;28;19923;-71
2023/03/03 17:27:56;;;;;;;;;;;;;;;;;;5042690;28;19931;-71
2023/03/03 17:30:42;;;;;;;;;;;;;;;;;;5059882;28;20198;-72
2023/03/03 17:33:29;;;;;;;;;;;;;;;;;;5065481;28;19920;-72
2023/03/03 17:36:15;;;;;;;;;;;;;;;;;;5060776;28;19928;-71
2023/03/03 17:39:02;;;;;;;;;;;;;;;;;;5059488;28;19931;-72
2023/03/03 17:41:48;;;;;;;;;;;;;;;;;;5061420;28;19924;-71
2023/03/03 17:44:35;;;;;;;;;;;;;;;;;;5060874;28;20367;-71
2023/03/03 17:47:23;;;;;;;;;;;;;;;;;;5067089;28;19927;-71
2023/03/03 17:50:09;;;;;;;;;;;;;;;;;;5063631;28;20372;-72
2023/03/03 17:52:56;;;;;;;;;;;;;;;;;;5062892;28;20384;-72
2023/03/03 17:55:43;;;;;;;;;;;;;;;;;;5064068;28;19920;-71
2023/03/03 17:58:31;;;;;;;;;;;;;;;;;;5056817;28;19920;-71
2023/03/03 18:01:18;;;;;;;;;;;;;;;;;;5060893;28;19931;-72
2023/03/03 18:04:04;;;;;;;;;;;;;;;;;;5057118;28;19928;-72
2023/03/03 18:06:54;;;;;;;;;;;;;;;;;;5064129;28;19927;-72
2023/03/03 18:09:40;;;;;;;;;;;;;;;;;;5049107;28;20394;-71
2023/03/03 18:12:27;;;;;;;;;;;;;;;;;;5053400;28;19923;-72
2023/03/03 18:15:13;;;;;;;;;;;;;;;;;;5065670;28;20311;-72
2023/03/03 18:18:00;;;;;;;;;;;;;;;;;;5046092;28;19917;-78
2023/03/03 18:20:46;;;;;;;;;;;;;;;;;;5050455;28;20399;-71
2023/03/03 18:23:34;;;;;;;;;;;;;;;;;;5037157;28;19927;-73
2023/03/03 18:26:20;;;;;;;;;;;;;;;;;;5033908;28;20330;-74
2023/03/03 18:29:06;;;;;;;;;;;;;;;;;;5042071;28;20403;-75
2023/03/03 18:31:53;;;;;;;;;;;;;;;;;;5043639;28;19932;-74
2023/03/03 18:34:39;;;;;;;;;;;;;;;;;;5034747;28;19983;-73
2023/03/03 18:37:26;;;;;;;;;;;;;;;;;;5036449;28;19920;-74
2023/03/03 18:40:16;;;;;;;;;;;;;;;;;;5045276;28;20381;-72
2023/03/03 18:43:02;;;;;;;;;;;;;;;;;;5029444;28;19917;-71
2023/03/03 18:45:49;;;;;;;;;;;;;;;;;;5035771;28;19927;-71
2023/03/03 18:48:35;;;;;;;;;;;;;;;;;;5028341;28;19925;-73
2023/03/03 18:51:22;;;;;;;;;;;;;;;;;;5039785;28;20474;-71
2023/03/03 18:54:09;;;;;;;;;;;;;;;;;;5035686;28;19923;-71
2023/03/03 18:56:56;;;;;;;;;;;;;;;;;;5030228;28;19922;-72